createdAt,value
2023-03-18T00:00:40.140Z,3.79
2023-03-18T00:04:18.275Z,3.77
2023-03-18T00:07:45.424Z,3.74
2023-03-18T00:11:14.131Z,3.72
2023-03-18T00:14:42.025Z,3.68
2023-03-18T00:18:09.190Z,3.65
2023-03-18T00:21:36.350Z,3.60
2023-03-18T00:25:03.385Z,3.57
2023-03-18T00:28:31.478Z,3.54
2023-03-18T00:31:58.600Z,3.52
2023-03-18T00:35:30.546Z,3.49
2023-03-18T00:38:58.541Z,3.47
2023-03-18T00:42:25.756Z,3.45
2023-03-18T00:45:53.400Z,3.44
2023-03-18T00:49:20.619Z,3.42
2023-03-18T00:52:47.992Z,3.39
2023-03-18T00:56:16.471Z,3.37
2023-03-18T00:59:44.351Z,3.34
2023-03-18T01:03:11.435Z,3.30
2023-03-18T01:06:39.336Z,3.27
2023-03-18T01:10:10.670Z,3.25
2023-03-18T01:13:38.756Z,3.24
2023-03-18T01:17:06.713Z,3.23
2023-03-18T01:20:34.034Z,3.22
2023-03-18T01:24:01.734Z,3.21
2023-03-18T01:27:29.398Z,3.19
2023-03-18T01:30:59.023Z,3.17
2023-03-18T01:34:26.283Z,3.15
2023-03-18T01:37:53.603Z,3.13
2023-03-18T01:41:21.733Z,3.09
2023-03-18T01:44:49.184Z,3.05
2023-03-18T01:48:20.368Z,3.02
2023-03-18T01:51:52.325Z,2.98
2023-03-18T01:55:21.813Z,2.93
2023-03-18T01:58:48.928Z,2.90
2023-03-18T02:02:17.934Z,2.86
2023-03-18T02:05:46.289Z,2.83
2023-03-18T02:09:14.255Z,2.81
2023-03-18T02:12:45.593Z,2.76
2023-03-18T02:16:19.916Z,2.73
2023-03-18T02:19:58.074Z,2.69
2023-03-18T02:23:36.770Z,2.67
2023-03-18T02:27:08.091Z,2.65
2023-03-18T02:30:44.044Z,2.63
2023-03-18T02:34:12.968Z,2.61
2023-03-18T02:37:41.200Z,2.60
2023-03-18T02:41:12.977Z,2.61
2023-03-18T02:44:47.280Z,2.63
2023-03-18T02:48:37.797Z,2.65
2023-03-18T02:52:05.618Z,2.66
2023-03-18T02:55:32.724Z,2.69
2023-03-18T02:58:59.737Z,2.70
2023-03-18T03:02:27.192Z,2.71
2023-03-18T03:05:54.701Z,2.69
2023-03-18T03:09:23.025Z,2.65
2023-03-18T03:12:50.627Z,2.61
2023-03-18T03:16:19.381Z,2.56
2023-03-18T03:19:47.127Z,2.51
2023-03-18T03:23:16.811Z,2.45
2023-03-18T03:26:43.781Z,2.38
2023-03-18T03:30:14.774Z,2.32
2023-03-18T03:33:43.795Z,2.26
2023-03-18T03:37:11.256Z,2.20
2023-03-18T03:40:38.904Z,2.15
2023-03-18T03:44:06.291Z,2.12
2023-03-18T03:47:33.419Z,2.09
2023-03-18T03:51:00.892Z,2.06
2023-03-18T03:54:28.560Z,2.04
2023-03-18T03:57:55.728Z,2.04
2023-03-18T04:01:23.226Z,2.04
2023-03-18T04:04:50.717Z,2.06
2023-03-18T04:08:27.118Z,2.09
2023-03-18T04:11:54.466Z,2.14
2023-03-18T04:15:23.249Z,2.18
2023-03-18T04:18:51.769Z,2.23
2023-03-18T04:22:22.548Z,2.27
2023-03-18T04:25:49.606Z,2.33
2023-03-18T04:29:17.210Z,2.38
2023-03-18T04:32:44.674Z,2.42
2023-03-18T04:36:12.130Z,2.45
2023-03-18T04:39:39.489Z,2.49
2023-03-18T04:43:11.299Z,2.53
2023-03-18T04:46:39.237Z,2.57
2023-03-18T04:50:10.836Z,2.61
2023-03-18T04:53:38.046Z,2.68
2023-03-18T04:57:06.785Z,2.73
2023-03-18T05:00:36.692Z,2.79
2023-03-18T05:04:13.788Z,2.85
2023-03-18T05:07:46.480Z,2.89
2023-03-18T05:11:15.042Z,2.92
2023-03-18T05:14:42.995Z,2.93
2023-03-18T05:18:11.081Z,2.95
2023-03-18T05:21:39.563Z,2.97
2023-03-18T05:25:08.626Z,3.00
2023-03-18T05:28:36.609Z,3.03
2023-03-18T05:32:14.712Z,3.06
2023-03-18T05:35:42.508Z,3.10
2023-03-18T05:39:10.856Z,3.14
2023-03-18T05:42:53.548Z,3.18
2023-03-18T05:46:29.049Z,3.22
2023-03-18T05:50:16.727Z,3.26
2023-03-18T05:53:43.719Z,3.32
2023-03-18T05:57:18.505Z,3.38
2023-03-18T06:00:45.849Z,3.43
2023-03-18T06:04:13.722Z,3.51
2023-03-18T06:07:40.930Z,3.61
2023-03-18T06:11:08.227Z,3.71
2023-03-18T06:14:35.578Z,3.81
2023-03-18T06:18:02.785Z,3.90
2023-03-18T06:21:31.724Z,4.00
2023-03-18T06:24:59.476Z,4.11
2023-03-18T06:28:26.859Z,4.19
2023-03-18T06:31:54.261Z,4.29
2023-03-18T06:35:26.628Z,4.42
2023-03-18T06:38:52.789Z,4.56
2023-03-18T06:42:20.614Z,4.68
2023-03-18T06:45:59.715Z,4.81
2023-03-18T06:49:27.367Z,4.90
2023-03-18T06:53:00.455Z,5.05
2023-03-18T06:56:30.750Z,5.24
2023-03-18T07:00:09.136Z,5.50
2023-03-18T07:03:37.502Z,5.74
2023-03-18T07:07:05.942Z,5.97
2023-03-18T07:10:34.868Z,6.18
2023-03-18T07:14:08.033Z,6.42
2023-03-18T07:17:37.400Z,6.67
2023-03-18T07:21:05.394Z,7.01
2023-03-18T07:24:33.150Z,7.37
2023-03-18T07:28:01.376Z,7.74
2023-03-18T07:31:30.111Z,8.11
2023-03-18T07:34:57.734Z,8.44
2023-03-18T07:38:25.777Z,8.75
2023-03-18T07:41:52.924Z,9.12
2023-03-18T07:45:29.181Z,9.52
2023-03-18T07:48:56.292Z,9.92
2023-03-18T07:52:23.730Z,10.26
2023-03-18T07:55:51.094Z,10.58
2023-03-18T07:59:18.843Z,10.82
2023-03-18T08:02:46.123Z,11.04
2023-03-18T08:06:13.897Z,11.17
2023-03-18T08:09:41.261Z,11.29
2023-03-18T08:13:08.260Z,11.39
2023-03-18T08:16:35.404Z,11.43
2023-03-18T08:20:02.627Z,11.52
2023-03-18T08:23:29.769Z,11.58
2023-03-18T08:26:57.026Z,11.64
2023-03-18T08:30:28.559Z,11.71
2023-03-18T08:33:56.403Z,11.79
2023-03-18T08:37:23.532Z,11.85
2023-03-18T08:40:51.000Z,11.89
2023-03-18T08:44:18.031Z,11.85
2023-03-18T08:47:45.275Z,11.89
2023-03-18T08:51:12.336Z,12.04
2023-03-18T08:54:39.510Z,12.19
2023-03-18T08:58:07.573Z,12.27
2023-03-18T09:01:34.712Z,12.37
2023-03-18T09:05:01.828Z,12.45
2023-03-18T09:08:30.854Z,12.49
2023-03-18T09:11:58.055Z,12.63
2023-03-18T09:15:25.228Z,12.80
2023-03-18T09:18:52.337Z,12.98
2023-03-18T09:22:19.421Z,13.10
2023-03-18T09:25:46.881Z,13.15
2023-03-18T09:29:13.962Z,13.14
2023-03-18T09:32:41.174Z,13.13
2023-03-18T09:36:09.955Z,13.10
2023-03-18T09:39:37.379Z,13.05
2023-03-18T09:43:23.067Z,13.04
2023-03-18T09:47:05.913Z,13.14
2023-03-18T09:50:43.760Z,13.27
2023-03-18T09:54:15.240Z,13.41
2023-03-18T09:57:47.201Z,13.47
2023-03-18T10:01:16.790Z,13.56
2023-03-18T10:04:45.368Z,13.61
2023-03-18T10:08:20.310Z,13.67
2023-03-18T10:11:49.665Z,13.75
2023-03-18T10:15:17.935Z,13.86
2023-03-18T10:18:46.008Z,14.01
2023-03-18T10:22:28.264Z,14.09
2023-03-18T10:25:59.313Z,14.19
2023-03-18T10:29:37.340Z,14.29
2023-03-18T10:33:18.972Z,14.39
2023-03-18T10:36:57.320Z,14.45
2023-03-18T10:40:28.797Z,14.49
2023-03-18T10:43:58.466Z,14.55
2023-03-18T10:47:29.843Z,14.70
2023-03-18T10:51:05.128Z,14.82
2023-03-18T10:54:36.785Z,14.88
2023-03-18T10:58:12.710Z,14.91
2023-03-18T11:01:52.606Z,14.89
2023-03-18T11:05:26.248Z,14.86
2023-03-18T11:09:06.343Z,14.88
2023-03-18T11:12:36.388Z,14.96
2023-03-18T11:16:04.486Z,15.00
2023-03-18T11:19:33.874Z,15.14
2023-03-18T11:23:12.140Z,15.30
2023-03-18T11:26:50.198Z,15.50
2023-03-18T11:30:33.678Z,15.69
2023-03-18T11:34:08.827Z,15.86
2023-03-18T11:37:37.800Z,15.94
2023-03-18T11:41:15.361Z,16.05
2023-03-18T11:44:42.554Z,16.15
2023-03-18T11:48:18.011Z,16.15
2023-03-18T11:51:51.116Z,16.18
2023-03-18T11:55:33.643Z,16.31
2023-03-18T11:59:22.211Z,16.51
2023-03-18T12:03:03.496Z,16.65
2023-03-18T12:06:32.110Z,16.87
2023-03-18T12:10:10.606Z,17.00
2023-03-18T12:13:53.460Z,16.92
2023-03-18T12:17:32.879Z,16.84
2023-03-18T12:21:07.022Z,16.81
2023-03-18T12:24:51.724Z,16.77
2023-03-18T12:28:32.087Z,16.74
2023-03-18T12:32:14.902Z,16.68
2023-03-18T12:35:51.828Z,16.52
2023-03-18T12:39:46.115Z,16.43
2023-03-18T12:43:43.260Z,16.44
2023-03-18T12:47:18.483Z,16.49
2023-03-18T12:50:48.699Z,16.51
2023-03-18T12:54:23.862Z,16.44
2023-03-18T12:57:56.491Z,16.23
2023-03-18T13:01:31.705Z,16.08
2023-03-18T13:05:05.838Z,15.98
2023-03-18T13:09:01.502Z,15.90
2023-03-18T13:12:33.650Z,15.89
2023-03-18T13:16:04.252Z,15.89
2023-03-18T13:19:33.831Z,15.82
2023-03-18T13:23:14.576Z,15.76
2023-03-18T13:27:10.442Z,15.72
2023-03-18T13:30:54.241Z,15.72
2023-03-18T13:34:45.843Z,15.81
2023-03-18T13:38:52.985Z,15.88
2023-03-18T13:42:26.986Z,15.85
2023-03-18T13:45:57.114Z,15.83
2023-03-18T13:49:27.253Z,15.84
2023-03-18T13:52:57.615Z,15.88
2023-03-18T13:56:47.774Z,15.86
2023-03-18T14:00:35.833Z,15.90
2023-03-18T14:04:21.397Z,15.98
2023-03-18T14:07:51.248Z,16.04
2023-03-18T14:11:53.858Z,16.06
2023-03-18T14:15:40.810Z,16.07
2023-03-18T14:19:17.380Z,16.01
2023-03-18T14:22:46.196Z,15.91
2023-03-18T14:26:24.104Z,15.84
2023-03-18T14:29:51.407Z,15.79
2023-03-18T14:33:36.532Z,15.77
2023-03-18T14:37:27.815Z,15.78
2023-03-18T14:40:58.212Z,15.74
2023-03-18T14:44:35.776Z,15.71
2023-03-18T14:48:06.678Z,15.66
2023-03-18T14:51:34.208Z,15.56
2023-03-18T14:55:07.823Z,15.46
2023-03-18T14:58:37.324Z,15.37
2023-03-18T15:02:10.018Z,15.33
2023-03-18T15:05:40.259Z,15.28
2023-03-18T15:09:10.477Z,15.25
2023-03-18T15:12:38.427Z,15.21
2023-03-18T15:16:10.834Z,15.17
2023-03-18T15:19:38.334Z,15.12
2023-03-18T15:23:09.144Z,15.07
2023-03-18T15:26:39.045Z,15.02
2023-03-18T15:30:11.827Z,14.95
2023-03-18T15:33:39.938Z,14.88
2023-03-18T15:37:34.204Z,14.81
2023-03-18T15:41:04.412Z,14.72
2023-03-18T15:44:34.167Z,14.61
2023-03-18T15:48:09.215Z,14.52
2023-03-18T15:51:45.003Z,14.42
2023-03-18T15:55:29.811Z,14.34
2023-03-18T15:59:09.001Z,14.25
2023-03-18T16:02:37.102Z,14.17
2023-03-18T16:06:05.419Z,14.10
2023-03-18T16:09:34.619Z,14.04
2023-03-18T16:13:04.486Z,13.95
2023-03-18T16:16:30.675Z,13.85
2023-03-18T16:19:58.703Z,13.74
2023-03-18T16:23:26.071Z,13.62
2023-03-18T16:26:54.724Z,13.53
2023-03-18T16:30:24.676Z,13.43
2023-03-18T16:33:53.916Z,13.35
2023-03-18T16:37:25.717Z,13.25
2023-03-18T16:40:54.864Z,13.16
2023-03-18T16:44:23.914Z,13.07
2023-03-18T16:47:53.107Z,12.97
2023-03-18T16:51:20.189Z,12.88
2023-03-18T16:54:47.929Z,12.77
2023-03-18T16:58:17.886Z,12.67
2023-03-18T17:01:45.854Z,12.55
2023-03-18T17:05:17.459Z,12.43
2023-03-18T17:08:44.675Z,12.32
2023-03-18T17:12:16.032Z,12.21
2023-03-18T17:15:43.096Z,12.11
2023-03-18T17:19:15.471Z,12.01
2023-03-18T17:22:43.465Z,11.92
2023-03-18T17:26:15.868Z,11.83
2023-03-18T17:29:43.402Z,11.74
2023-03-18T17:33:22.311Z,11.66
2023-03-18T17:36:49.863Z,11.57
2023-03-18T17:40:20.177Z,11.47
2023-03-18T17:43:47.407Z,11.38
2023-03-18T17:47:15.295Z,11.29
2023-03-18T17:50:45.023Z,11.21
2023-03-18T17:54:14.888Z,11.12
2023-03-18T17:57:43.000Z,11.04
2023-03-18T18:01:15.382Z,10.95
2023-03-18T18:04:43.246Z,10.87
2023-03-18T18:08:15.270Z,10.79
2023-03-18T18:11:45.724Z,10.72
2023-03-18T18:15:22.952Z,10.64
2023-03-18T18:18:50.754Z,10.55
2023-03-18T18:22:22.629Z,10.48
2023-03-18T18:25:50.282Z,10.40
2023-03-18T18:29:21.271Z,10.34
2023-03-18T18:32:49.062Z,10.25
2023-03-18T18:36:18.278Z,10.16
2023-03-18T18:39:45.554Z,10.08
2023-03-18T18:43:13.343Z,9.99
2023-03-18T18:46:41.507Z,9.90
2023-03-18T18:50:16.920Z,9.81
2023-03-18T18:53:45.170Z,9.73
2023-03-18T18:57:28.324Z,9.64
2023-03-18T19:00:55.964Z,9.55
2023-03-18T19:04:23.735Z,9.45
2023-03-18T19:07:51.659Z,9.34
2023-03-18T19:11:19.016Z,9.25
2023-03-18T19:14:47.101Z,9.14
2023-03-18T19:18:19.973Z,9.06
2023-03-18T19:21:47.366Z,8.97
2023-03-18T19:25:16.541Z,8.90
2023-03-18T19:28:59.423Z,8.84
2023-03-18T19:32:27.389Z,8.78
2023-03-18T19:35:54.553Z,8.71
2023-03-18T19:39:22.927Z,8.64
2023-03-18T19:42:50.118Z,8.57
2023-03-18T19:46:21.035Z,8.51
2023-03-18T19:49:48.566Z,8.47
2023-03-18T19:53:17.729Z,8.43
2023-03-18T19:56:46.446Z,8.39
2023-03-18T20:00:24.250Z,8.35
2023-03-18T20:03:54.282Z,8.30
2023-03-18T20:07:24.662Z,8.26
2023-03-18T20:10:52.207Z,8.22
2023-03-18T20:14:28.444Z,8.18
2023-03-18T20:17:58.289Z,8.14
2023-03-18T20:21:29.601Z,8.10
2023-03-18T20:24:56.900Z,8.05
2023-03-18T20:28:26.202Z,7.99
2023-03-18T20:31:53.519Z,7.93
2023-03-18T20:35:21.467Z,7.86
2023-03-18T20:38:51.485Z,7.80
2023-03-18T20:42:19.278Z,7.73
2023-03-18T20:45:46.693Z,7.67
2023-03-18T20:49:16.124Z,7.59
2023-03-18T20:52:44.194Z,7.52
2023-03-18T20:56:12.175Z,7.45
2023-03-18T20:59:39.193Z,7.40
2023-03-18T21:03:18.849Z,7.33
2023-03-18T21:06:46.386Z,7.27
2023-03-18T21:10:18.798Z,7.22
2023-03-18T21:13:45.963Z,7.17
2023-03-18T21:17:20.578Z,7.11
2023-03-18T21:20:48.122Z,7.05
2023-03-18T21:24:26.340Z,7.00
2023-03-18T21:27:54.111Z,6.92
2023-03-18T21:31:28.155Z,6.85
2023-03-18T21:34:56.275Z,6.78
2023-03-18T21:38:23.581Z,6.72
2023-03-18T21:41:50.788Z,6.68
2023-03-18T21:45:20.403Z,6.62
2023-03-18T21:48:48.071Z,6.56
2023-03-18T21:52:20.424Z,6.51
2023-03-18T21:55:48.376Z,6.45
2023-03-18T21:59:15.600Z,6.39
2023-03-18T22:02:42.898Z,6.34
2023-03-18T22:06:15.223Z,6.28
2023-03-18T22:09:42.715Z,6.22
2023-03-18T22:13:19.528Z,6.16
2023-03-18T22:16:46.563Z,6.10
2023-03-18T22:20:15.691Z,6.04
2023-03-18T22:23:43.974Z,6.00
2023-03-18T22:27:19.910Z,5.96
2023-03-18T22:30:52.072Z,5.88
2023-03-18T22:34:24.270Z,5.82
2023-03-18T22:37:52.426Z,5.76
2023-03-18T22:41:24.004Z,5.69
2023-03-18T22:44:51.838Z,5.64
2023-03-18T22:48:20.202Z,5.58
2023-03-18T22:51:47.392Z,5.54
2023-03-18T22:55:22.080Z,5.49
2023-03-18T22:58:49.086Z,5.44
2023-03-18T23:02:20.327Z,5.39
2023-03-18T23:05:48.231Z,5.34
2023-03-18T23:09:15.378Z,5.30
2023-03-18T23:12:43.040Z,5.28
2023-03-18T23:16:14.862Z,5.26
2023-03-18T23:19:42.129Z,5.22
2023-03-18T23:23:09.736Z,5.20
2023-03-18T23:26:36.971Z,5.18
2023-03-18T23:30:04.312Z,5.16
2023-03-18T23:33:32.095Z,5.15
2023-03-18T23:36:59.171Z,5.14
2023-03-18T23:40:27.446Z,5.12
2023-03-18T23:43:54.689Z,5.11
2023-03-18T23:47:21.754Z,5.10
2023-03-18T23:50:49.632Z,5.08
2023-03-18T23:54:17.096Z,5.05
2023-03-18T23:57:44.391Z,5.03
